createdAt,value
2022-08-18T00:01:07.961Z,22.25
2022-08-18T00:03:57.428Z,24.73
2022-08-18T00:06:24.065Z,23.50
2022-08-18T00:08:58.726Z,23.77
2022-08-18T00:11:27.431Z,22.92
2022-08-18T00:13:55.545Z,23.50
2022-08-18T00:16:23.591Z,23.60
2022-08-18T00:18:51.639Z,23.50
2022-08-18T00:21:20.745Z,24.90
2022-08-18T00:23:48.760Z,25.70
2022-08-18T00:26:18.244Z,25.13
2022-08-18T00:28:46.244Z,24.10
2022-08-18T00:31:14.287Z,24.67
2022-08-18T00:33:43.671Z,25.85
2022-08-18T00:36:12.273Z,26.33
2022-08-18T00:38:40.854Z,26.35
2022-08-18T00:41:09.417Z,28.88
2022-08-18T00:43:45.100Z,27.25
2022-08-18T00:46:18.090Z,26.50
2022-08-18T00:48:48.679Z,26.55
2022-08-18T00:51:22.441Z,26.05
2022-08-18T00:53:55.350Z,27.60
2022-08-18T00:56:26.895Z,26.90
2022-08-18T00:59:02.161Z,26.83
2022-08-18T01:01:34.211Z,30.25
2022-08-18T01:04:10.922Z,30.05
2022-08-18T01:06:43.594Z,32.58
2022-08-18T01:09:11.986Z,27.92
2022-08-18T01:11:41.465Z,31.27
2022-08-18T01:14:11.686Z,30.27
2022-08-18T01:16:59.352Z,32.35
2022-08-18T01:19:46.380Z,32.90
2022-08-18T01:22:22.558Z,35.25
2022-08-18T01:25:10.764Z,33.13
2022-08-18T01:27:41.661Z,32.95
2022-08-18T01:30:13.515Z,32.42
2022-08-18T01:32:42.939Z,32.10
2022-08-18T01:35:12.898Z,33.55
2022-08-18T01:37:41.445Z,33.42
2022-08-18T01:41:17.227Z,33.25
2022-08-18T01:43:05.413Z,33.25
2022-08-18T01:45:34.618Z,33.00
2022-08-18T01:48:04.926Z,39.95
2022-08-18T01:50:34.284Z,37.28
2022-08-18T01:53:04.486Z,38.90
2022-08-18T01:55:34.868Z,40.50
2022-08-18T01:58:02.962Z,39.63
2022-08-18T02:00:32.311Z,37.55
2022-08-18T02:03:02.540Z,38.38
2022-08-18T02:05:35.207Z,37.80
2022-08-18T02:08:03.648Z,40.30
2022-08-18T02:10:33.271Z,41.42
2022-08-18T02:13:01.372Z,43.63
2022-08-18T02:15:29.361Z,46.95
2022-08-18T02:17:58.700Z,50.22
2022-08-18T02:20:26.912Z,50.28
2022-08-18T02:22:55.152Z,47.40
2022-08-18T02:25:23.295Z,45.38
2022-08-18T02:27:53.335Z,48.65
2022-08-18T02:30:21.667Z,53.35
2022-08-18T02:32:49.933Z,55.92
2022-08-18T02:35:18.025Z,55.45
2022-08-18T02:37:48.077Z,54.72
2022-08-18T02:40:17.170Z,61.22
2022-08-18T02:42:45.829Z,57.45
2022-08-18T02:45:15.797Z,54.13
2022-08-18T02:47:45.036Z,48.08
2022-08-18T02:50:13.756Z,46.78
2022-08-18T02:52:41.873Z,48.45
2022-08-18T02:55:11.749Z,47.20
2022-08-18T02:57:43.491Z,46.42
2022-08-18T03:00:14.426Z,45.08
2022-08-18T03:02:47.455Z,43.95
2022-08-18T03:05:15.664Z,44.53
2022-08-18T03:07:43.741Z,41.08
2022-08-18T03:10:32.403Z,41.03
2022-08-18T03:13:02.257Z,39.63
2022-08-18T03:15:30.257Z,44.53
2022-08-18T03:18:01.212Z,54.30
2022-08-18T03:20:30.347Z,60.00
2022-08-18T03:22:58.709Z,60.42
2022-08-18T03:25:26.763Z,58.13
2022-08-18T03:27:54.803Z,58.63
2022-08-18T03:30:23.640Z,54.92
2022-08-18T03:32:52.242Z,59.10
2022-08-18T03:35:21.688Z,70.28
2022-08-18T03:37:49.772Z,60.53
2022-08-18T03:40:18.068Z,62.33
2022-08-18T03:42:46.129Z,68.47
2022-08-18T03:45:17.469Z,72.93
2022-08-18T03:47:46.496Z,72.85
2022-08-18T03:50:14.741Z,69.55
2022-08-18T03:52:45.804Z,75.45
2022-08-18T03:55:13.817Z,70.50
2022-08-18T03:57:41.834Z,62.53
2022-08-18T04:00:12.065Z,60.88
2022-08-18T04:02:40.107Z,57.42
2022-08-18T04:05:10.175Z,58.13
2022-08-18T04:07:38.206Z,57.65
2022-08-18T04:10:19.238Z,58.95
2022-08-18T04:12:47.943Z,58.85
2022-08-18T04:15:16.768Z,59.53
2022-08-18T04:18:06.213Z,55.78
2022-08-18T04:20:34.209Z,51.53
2022-08-18T04:23:03.242Z,53.22
2022-08-18T04:25:33.471Z,56.35
2022-08-18T04:28:03.518Z,55.60
2022-08-18T04:30:31.743Z,55.70
2022-08-18T04:33:01.870Z,64.47
2022-08-18T04:35:31.265Z,64.07
2022-08-18T04:37:59.310Z,65.35
2022-08-18T04:40:27.996Z,63.40
2022-08-18T04:42:57.423Z,63.30
2022-08-18T04:45:25.455Z,61.90
2022-08-18T04:47:53.752Z,63.78
2022-08-18T04:50:21.878Z,62.30
2022-08-18T04:53:07.488Z,66.97
2022-08-18T04:55:35.551Z,62.45
2022-08-18T04:58:05.008Z,60.97
2022-08-18T05:00:32.986Z,56.30
2022-08-18T05:03:00.986Z,57.28
2022-08-18T05:05:28.986Z,52.53
2022-08-18T05:07:58.089Z,57.38
2022-08-18T05:10:26.113Z,58.47
2022-08-18T05:12:54.189Z,57.65
2022-08-18T05:15:23.542Z,62.17
2022-08-18T05:17:51.633Z,63.78
2022-08-18T05:20:20.884Z,64.47
2022-08-18T05:22:49.324Z,62.80
2022-08-18T05:25:17.478Z,58.53
2022-08-18T05:27:45.593Z,63.63
2022-08-18T05:30:16.795Z,62.72
2022-08-18T05:32:49.896Z,62.63
2022-08-18T05:35:23.140Z,62.53
2022-08-18T05:38:13.892Z,63.13
2022-08-18T05:40:42.796Z,62.80
2022-08-18T05:43:12.172Z,64.20
2022-08-18T05:45:41.956Z,60.97
2022-08-18T05:48:11.372Z,64.43
2022-08-18T05:50:39.436Z,61.38
2022-08-18T05:53:13.481Z,62.33
2022-08-18T05:56:05.215Z,65.57
2022-08-18T05:58:37.892Z,66.90
2022-08-18T06:01:13.154Z,72.80
2022-08-18T06:03:47.738Z,74.45
2022-08-18T06:06:20.868Z,68.90
2022-08-18T06:08:57.382Z,62.78
2022-08-18T06:11:25.873Z,61.40
2022-08-18T06:13:59.140Z,71.22
2022-08-18T06:16:44.516Z,66.95
2022-08-18T06:19:28.040Z,68.90
2022-08-18T06:22:04.618Z,68.30
2022-08-18T06:24:38.825Z,62.03
2022-08-18T06:27:21.893Z,65.78
2022-08-18T06:30:04.573Z,64.95
2022-08-18T06:32:47.693Z,65.88
2022-08-18T06:35:25.537Z,65.07
2022-08-18T06:38:17.862Z,62.30
2022-08-18T06:40:48.481Z,63.83
2022-08-18T06:43:18.157Z,63.30
2022-08-18T06:45:52.179Z,65.55
2022-08-18T06:49:03.736Z,63.47
2022-08-18T06:51:36.253Z,64.32
2022-08-18T06:54:08.764Z,62.28
2022-08-18T06:56:49.302Z,62.38
2022-08-18T06:59:24.192Z,64.05
2022-08-18T07:01:55.871Z,62.65
2022-08-18T07:04:42.794Z,63.65
2022-08-18T07:07:18.384Z,65.22
2022-08-18T07:09:47.412Z,61.35
2022-08-18T07:12:22.998Z,60.97
2022-08-18T07:14:52.895Z,65.10
2022-08-18T07:17:42.840Z,63.53
2022-08-18T07:20:21.046Z,65.90
2022-08-18T07:23:00.290Z,67.40
2022-08-18T07:25:38.802Z,68.38
2022-08-18T07:28:07.185Z,69.30
2022-08-18T07:30:37.240Z,70.10
2022-08-18T07:33:14.896Z,72.85
2022-08-18T07:35:49.229Z,68.00
2022-08-18T07:38:43.770Z,72.13
2022-08-18T07:41:16.658Z,70.45
2022-08-18T07:43:54.480Z,68.47
2022-08-18T07:46:29.634Z,69.25
2022-08-18T07:48:59.475Z,68.53
2022-08-18T07:51:45.536Z,68.10
2022-08-18T07:54:47.781Z,66.95
2022-08-18T07:57:20.375Z,67.75
2022-08-18T07:59:55.052Z,64.97
2022-08-18T08:02:35.986Z,67.68
2022-08-18T08:05:16.110Z,69.55
2022-08-18T08:07:50.759Z,69.55
2022-08-18T08:10:31.334Z,70.63
2022-08-18T08:13:09.861Z,74.50
2022-08-18T08:15:46.873Z,73.85
2022-08-18T08:18:22.781Z,71.55
2022-08-18T08:20:54.946Z,69.97
2022-08-18T08:23:30.349Z,68.28
2022-08-18T08:26:24.669Z,66.10
2022-08-18T08:29:08.756Z,63.40
2022-08-18T08:31:44.474Z,64.22
2022-08-18T08:34:17.723Z,61.28
2022-08-18T08:36:48.082Z,61.35
2022-08-18T08:39:21.614Z,58.97
2022-08-18T08:42:29.808Z,58.88
2022-08-18T08:44:59.223Z,49.85
2022-08-18T08:47:33.162Z,48.85
2022-08-18T08:50:04.571Z,49.15
2022-08-18T08:52:39.372Z,49.13
2022-08-18T08:55:12.160Z,51.72
2022-08-18T08:57:51.439Z,48.40
2022-08-18T09:00:21.203Z,46.70
2022-08-18T09:03:03.161Z,45.05
2022-08-18T09:05:37.043Z,42.40
2022-08-18T09:08:32.778Z,45.83
2022-08-18T09:11:50.008Z,45.30
2022-08-18T09:14:48.257Z,42.75
2022-08-18T09:17:51.871Z,43.08
2022-08-18T09:20:40.572Z,43.53
2022-08-18T09:23:11.935Z,42.80
2022-08-18T09:25:50.539Z,43.38
2022-08-18T09:28:20.828Z,43.00
2022-08-18T09:31:15.007Z,43.05
2022-08-18T09:34:10.849Z,43.22
2022-08-18T09:36:54.775Z,43.83
2022-08-18T09:39:54.625Z,41.20
2022-08-18T09:42:33.881Z,36.03
2022-08-18T09:45:53.000Z,32.78
2022-08-18T09:48:31.867Z,31.65
2022-08-18T09:51:41.999Z,31.80
2022-08-18T09:54:15.151Z,30.55
2022-08-18T09:57:24.483Z,30.85
2022-08-18T10:00:16.743Z,33.17
2022-08-18T10:03:13.806Z,29.42
2022-08-18T10:05:59.441Z,28.85
2022-08-18T10:09:17.719Z,30.77
2022-08-18T10:12:09.856Z,26.38
2022-08-18T10:14:59.510Z,24.40
2022-08-18T10:17:45.735Z,24.92
2022-08-18T10:20:27.797Z,24.02
2022-08-18T10:22:57.990Z,30.17
2022-08-18T10:25:36.322Z,30.42
2022-08-18T10:28:05.819Z,27.15
2022-08-18T10:34:16.941Z,29.30
2022-08-18T10:36:52.369Z,37.70
2022-08-18T10:39:24.254Z,37.55
2022-08-18T10:42:04.891Z,40.13
2022-08-18T10:44:43.107Z,40.25
2022-08-18T10:47:24.975Z,40.55
2022-08-18T10:50:03.693Z,39.03
2022-08-18T10:52:51.473Z,38.33
2022-08-18T10:59:07.342Z,32.75
2022-08-18T11:02:07.717Z,29.48
2022-08-18T11:04:42.392Z,31.65
2022-08-18T11:07:14.595Z,32.80
2022-08-18T11:09:57.085Z,31.73
2022-08-18T11:12:53.009Z,30.98
2022-08-18T11:15:25.520Z,27.85
2022-08-18T11:18:03.190Z,21.15
2022-08-18T11:20:33.707Z,21.58
2022-08-18T11:23:03.565Z,23.27
2022-08-18T11:25:33.768Z,21.45
2022-08-18T11:28:04.151Z,22.83
2022-08-18T11:30:36.940Z,23.17
2022-08-18T11:33:07.203Z,20.95
2022-08-18T11:35:47.526Z,20.30
2022-08-18T11:38:23.305Z,21.20
2022-08-18T11:41:17.294Z,21.00
2022-08-18T11:43:48.400Z,20.38
2022-08-18T11:46:30.274Z,19.40
2022-08-18T11:49:01.347Z,17.58
2022-08-18T11:54:23.276Z,19.23
2022-08-18T11:56:53.122Z,18.75
2022-08-18T11:59:54.887Z,19.08
2022-08-18T12:02:26.309Z,19.55
2022-08-18T12:05:03.197Z,20.50
2022-08-18T12:07:37.848Z,20.70
2022-08-18T12:10:23.757Z,21.52
2022-08-18T12:15:49.121Z,21.05
2022-08-18T12:18:28.777Z,21.25
2022-08-18T12:20:58.926Z,19.40
2022-08-18T12:23:27.998Z,31.92
2022-08-18T12:26:26.790Z,37.17
2022-08-18T12:29:01.122Z,41.85
2022-08-18T12:31:41.993Z,49.00
2022-08-18T12:34:16.168Z,48.28
2022-08-18T12:36:46.583Z,52.80
2022-08-18T12:39:14.623Z,49.38
2022-08-18T12:41:42.983Z,48.22
2022-08-18T12:44:13.011Z,56.45
2022-08-18T12:46:44.030Z,54.92
2022-08-18T12:49:16.701Z,56.50
2022-08-18T12:51:45.070Z,56.38
2022-08-18T12:54:18.490Z,53.53
2022-08-18T12:56:51.322Z,54.80
2022-08-18T12:59:19.840Z,57.08
2022-08-18T13:01:49.279Z,57.53
2022-08-18T13:04:18.741Z,55.00
2022-08-18T13:07:00.198Z,52.85
2022-08-18T13:09:42.983Z,53.08
2022-08-18T13:12:19.652Z,47.92
2022-08-18T13:14:49.844Z,38.65
2022-08-18T13:17:29.452Z,42.33
2022-08-18T13:20:03.980Z,41.00
2022-08-18T13:22:33.334Z,38.35
2022-08-18T13:25:03.927Z,40.53
2022-08-18T13:27:33.081Z,41.20
2022-08-18T13:30:03.826Z,40.03
2022-08-18T13:32:59.494Z,25.95
2022-08-18T13:35:29.972Z,17.40
2022-08-18T13:38:12.339Z,15.73
2022-08-18T13:40:46.913Z,17.30
2022-08-18T13:43:16.144Z,17.73
2022-08-18T13:45:53.221Z,16.65
2022-08-18T13:48:26.010Z,17.63
2022-08-18T13:50:56.597Z,18.20
2022-08-18T13:53:27.445Z,18.80
2022-08-18T13:55:58.505Z,18.00
2022-08-18T13:58:27.626Z,18.25
2022-08-18T14:01:22.687Z,16.77
2022-08-18T14:03:50.054Z,14.98
2022-08-18T14:06:22.878Z,16.92
2022-08-18T14:08:52.611Z,16.95
2022-08-18T14:11:32.940Z,15.43
2022-08-18T14:14:02.458Z,17.27
2022-08-18T14:16:31.236Z,17.50
2022-08-18T14:19:18.624Z,16.95
2022-08-18T14:22:11.155Z,16.75
2022-08-18T14:24:59.183Z,16.27
2022-08-18T14:27:35.319Z,15.57
2022-08-18T14:30:06.689Z,17.20
2022-08-18T14:32:36.351Z,16.38
2022-08-18T14:35:33.119Z,16.55
2022-08-18T14:37:56.818Z,15.77
2022-08-18T14:40:25.191Z,16.05
2022-08-18T14:42:54.246Z,14.45
2022-08-18T14:45:31.810Z,20.98
2022-08-18T14:48:06.526Z,22.40
2022-08-18T14:50:37.424Z,32.00
2022-08-18T14:53:07.077Z,19.73
2022-08-18T14:55:35.988Z,17.23
2022-08-18T14:58:07.086Z,16.98
2022-08-18T15:00:49.770Z,16.83
2022-08-18T15:03:21.480Z,17.80
2022-08-18T15:05:58.178Z,17.40
2022-08-18T15:08:27.759Z,18.00
2022-08-18T15:10:57.204Z,16.98
2022-08-18T15:13:26.563Z,17.77
2022-08-18T15:16:01.863Z,16.42
2022-08-18T15:18:31.427Z,16.38
2022-08-18T15:21:34.896Z,16.17
2022-08-18T15:24:24.538Z,18.45
2022-08-18T15:26:57.976Z,16.52
2022-08-18T15:29:31.805Z,17.63
2022-08-18T15:32:10.121Z,17.90
2022-08-18T15:34:45.992Z,18.33
2022-08-18T15:37:19.470Z,18.67
2022-08-18T15:39:47.924Z,19.02
2022-08-18T15:42:20.770Z,19.13
2022-08-18T15:44:48.843Z,19.27
2022-08-18T15:47:21.253Z,21.58
2022-08-18T15:49:49.499Z,19.50
2022-08-18T15:52:20.482Z,20.58
2022-08-18T15:54:53.115Z,19.58
2022-08-18T15:57:39.740Z,18.40
2022-08-18T16:00:12.182Z,20.98
2022-08-18T16:02:48.341Z,20.65
2022-08-18T16:05:17.213Z,20.30
2022-08-18T16:07:47.683Z,22.85
2022-08-18T16:10:17.992Z,22.92
2022-08-18T16:12:46.487Z,20.20
2022-08-18T16:15:19.476Z,23.10
2022-08-18T16:17:48.288Z,22.83
2022-08-18T16:20:18.618Z,22.42
2022-08-18T16:22:48.822Z,20.75
2022-08-18T16:25:17.547Z,22.38
2022-08-18T16:27:47.756Z,23.70
2022-08-18T16:30:20.722Z,23.45
2022-08-18T16:32:48.885Z,24.13
2022-08-18T16:35:18.699Z,23.90
2022-08-18T16:37:49.178Z,24.15
2022-08-18T16:40:18.577Z,24.15
2022-08-18T16:42:46.900Z,25.23
2022-08-18T16:45:15.987Z,24.30
2022-08-18T16:47:44.071Z,24.40
2022-08-18T16:50:14.845Z,22.83
2022-08-18T16:52:43.536Z,24.48
2022-08-18T16:55:13.837Z,25.38
2022-08-18T16:58:01.179Z,25.42
2022-08-18T17:00:54.652Z,24.23
2022-08-18T17:03:46.395Z,23.70
2022-08-18T17:06:17.087Z,24.52
2022-08-18T17:08:45.659Z,24.38
2022-08-18T17:11:16.953Z,24.38
2022-08-18T17:13:46.148Z,24.23
2022-08-18T17:16:15.955Z,24.17
2022-08-18T17:18:44.659Z,24.52
2022-08-18T17:21:15.107Z,26.70
2022-08-18T17:23:43.666Z,24.77
2022-08-18T17:26:18.259Z,26.60
2022-08-18T17:28:52.693Z,26.90
2022-08-18T17:31:24.355Z,29.67
2022-08-18T17:33:54.431Z,27.35
2022-08-18T17:36:29.214Z,27.73
2022-08-18T17:39:00.586Z,27.25
2022-08-18T17:41:30.074Z,31.02
2022-08-18T17:44:01.903Z,30.98
2022-08-18T17:46:39.281Z,29.20
2022-08-18T17:49:13.966Z,30.90
2022-08-18T17:51:45.782Z,33.20
2022-08-18T17:54:27.544Z,29.17
2022-08-18T17:57:01.791Z,30.15
2022-08-18T17:59:46.517Z,31.00
2022-08-18T18:02:29.460Z,30.48
2022-08-18T18:04:59.063Z,28.73
2022-08-18T18:07:29.753Z,29.27
2022-08-18T18:10:01.918Z,30.88
2022-08-18T18:12:34.338Z,30.80
2022-08-18T18:15:04.790Z,30.00
2022-08-18T18:17:37.822Z,30.33
2022-08-18T18:20:17.026Z,29.45
2022-08-18T18:22:46.081Z,30.15
2022-08-18T18:25:30.168Z,29.52
2022-08-18T18:28:04.627Z,28.45
2022-08-18T18:30:33.461Z,28.48
2022-08-18T18:33:04.446Z,26.80
2022-08-18T18:35:53.344Z,26.00
2022-08-18T18:38:29.753Z,26.42
2022-08-18T18:41:00.628Z,25.90
2022-08-18T18:43:36.991Z,26.50
2022-08-18T18:46:29.910Z,25.65
2022-08-18T18:49:09.445Z,24.98
2022-08-18T18:51:44.005Z,24.13
2022-08-18T18:54:26.667Z,24.60
2022-08-18T18:56:57.408Z,25.63
2022-08-18T18:59:39.204Z,25.77
2022-08-18T19:02:33.141Z,23.55
2022-08-18T19:05:13.070Z,24.27
2022-08-18T19:07:59.843Z,23.35
2022-08-18T19:10:34.587Z,23.98
2022-08-18T19:13:05.721Z,23.13
2022-08-18T19:15:38.396Z,23.42
2022-08-18T19:18:25.466Z,24.40
2022-08-18T19:21:49.313Z,23.45
2022-08-18T19:23:49.867Z,23.02
2022-08-18T19:26:27.033Z,21.77
2022-08-18T19:29:12.560Z,21.77
2022-08-18T19:31:46.626Z,21.90
2022-08-18T19:34:18.531Z,22.60
2022-08-18T19:36:55.461Z,22.35
2022-08-18T19:39:31.275Z,22.38
2022-08-18T19:42:02.234Z,23.20
2022-08-18T19:44:37.482Z,21.88
2022-08-18T19:47:15.779Z,22.20
2022-08-18T19:49:54.170Z,23.10
2022-08-18T19:52:47.297Z,23.75
2022-08-18T19:55:28.148Z,22.60
2022-08-18T19:58:21.742Z,21.65
2022-08-18T20:00:56.360Z,21.67
2022-08-18T20:03:39.998Z,22.08
2022-08-18T20:06:35.188Z,21.40
2022-08-18T20:09:25.989Z,21.73
2022-08-18T20:12:22.967Z,20.95
2022-08-18T20:15:01.919Z,20.45
2022-08-18T20:17:29.976Z,22.48
2022-08-18T20:20:18.527Z,21.25
2022-08-18T20:22:48.756Z,20.45
2022-08-18T20:25:42.550Z,21.50
2022-08-18T20:28:45.914Z,21.00
2022-08-18T20:31:17.218Z,22.40
2022-08-18T20:34:03.927Z,22.65
2022-08-18T20:36:36.927Z,21.38
2022-08-18T20:39:37.638Z,22.35
2022-08-18T20:42:08.793Z,22.08
2022-08-18T20:44:58.671Z,22.73
2022-08-18T20:47:39.818Z,21.35
2022-08-18T20:50:40.395Z,22.83
2022-08-18T20:53:22.456Z,22.67
2022-08-18T20:55:58.249Z,23.70
2022-08-18T20:58:32.522Z,24.35
2022-08-18T21:01:01.932Z,24.35
2022-08-18T21:03:38.294Z,24.58
2022-08-18T21:06:08.152Z,25.27
2022-08-18T21:08:39.826Z,25.48
2022-08-18T21:11:11.153Z,26.83
2022-08-18T21:13:51.370Z,27.42
2022-08-18T21:16:38.583Z,27.00
2022-08-18T21:19:14.462Z,26.50
2022-08-18T21:21:46.776Z,26.75
2022-08-18T21:24:28.991Z,26.95
2022-08-18T21:27:00.355Z,27.50
2022-08-18T21:29:34.489Z,26.75
2022-08-18T21:32:19.983Z,27.35
2022-08-18T21:34:48.045Z,25.65
2022-08-18T21:37:18.223Z,26.77
2022-08-18T21:39:54.366Z,26.92
2022-08-18T21:42:27.908Z,26.35
2022-08-18T21:44:57.345Z,26.50
2022-08-18T21:47:31.820Z,26.27
2022-08-18T21:50:09.378Z,28.00
2022-08-18T21:52:40.801Z,26.25
2022-08-18T21:55:18.223Z,25.10
2022-08-18T21:58:00.884Z,26.10
2022-08-18T22:00:31.288Z,25.00
2022-08-18T22:03:20.497Z,25.17
2022-08-18T22:05:59.446Z,24.60
2022-08-18T22:08:30.903Z,24.15
2022-08-18T22:12:01.380Z,24.77
2022-08-18T22:14:54.079Z,23.30
2022-08-18T22:17:33.595Z,22.40
2022-08-18T22:20:33.523Z,22.65
2022-08-18T22:23:23.846Z,22.35
2022-08-18T22:25:52.066Z,21.15
2022-08-18T22:28:27.262Z,21.92
2022-08-18T22:30:55.547Z,21.65
2022-08-18T22:33:23.881Z,22.45
2022-08-18T22:35:55.253Z,20.92
2022-08-18T22:38:23.475Z,20.33
2022-08-18T22:40:51.562Z,22.05
2022-08-18T22:43:19.757Z,21.75
2022-08-18T22:45:49.179Z,20.95
2022-08-18T22:48:17.286Z,21.45
2022-08-18T22:50:46.290Z,20.75
2022-08-18T22:53:15.594Z,19.75
2022-08-18T22:55:44.053Z,21.20
2022-08-18T22:58:13.400Z,21.30
2022-08-18T23:00:45.599Z,19.80
2022-08-18T23:03:15.171Z,20.67
2022-08-18T23:05:43.224Z,22.60
2022-08-18T23:08:11.282Z,22.80
2022-08-18T23:10:39.319Z,22.52
2022-08-18T23:13:07.360Z,22.00
2022-08-18T23:15:46.975Z,20.48
2022-08-18T23:18:19.549Z,20.45
2022-08-18T23:20:49.487Z,21.88
2022-08-18T23:23:18.405Z,22.42
2022-08-18T23:25:47.671Z,21.80
2022-08-18T23:28:15.754Z,19.55
2022-08-18T23:30:44.818Z,19.50
2022-08-18T23:33:13.699Z,18.25
2022-08-18T23:35:44.346Z,16.85
2022-08-18T23:38:15.665Z,16.65
2022-08-18T23:40:46.295Z,16.45
2022-08-18T23:43:15.261Z,14.82
2022-08-18T23:45:47.890Z,14.18
2022-08-18T23:48:17.874Z,14.52
2022-08-18T23:50:48.394Z,15.02
2022-08-18T23:53:16.785Z,14.60
2022-08-18T23:55:44.967Z,14.38
2022-08-18T23:58:13.036Z,14.57
